YMML/MEL METAR and TAF weather

Enter ICAO airport designator
Station Type Date Time Source
YMML METAR 2019/12/09 13:30 UTC NOAA

YMML 091330Z 20007KT 9999 -RA BKN012 BKN020 16/13 Q1018


Station Type Date Time Source
YMML Decoded METAR 2019/12/09 13:30 UTC NOAA

Melbourne Airport, Australia (YMML) 37-40S 144-50E 141M
Dec 09, 2019 - 08:30 AM EST / 2019.12.09 1330 UTC
Wind: from the SSW (200 degrees) at 8 MPH (7 KT):0
Visibility: greater than 7 mile(s):0
Sky conditions: mostly cloudy
Weather: light rain
Temperature: 60 F (16 C)
Dew Point: 55 F (13 C)
Relative Humidity: 82%
Pressure (altimeter): 30.06 in. Hg (1018 hPa)
ob: YMML 091330Z 20007KT 9999 -RA BKN012 BKN020 16/13 Q1018
cycle: 13

Station Type Date Time Source
YMML TAF 2019/12/09 12:13 UTC NOAA

TAF
AMD YMML 091109Z 0912/1018 18012KT 9999 FEW008 BKN012
FM091400 18010KT 9999 -DZ BKN005
BECMG 0918/0920 19010KT 9999 -DZ SCT012 BKN020
FM092200 19014KT 9999 SCT018 BKN025
FM100000 18016G28KT 9999 FEW030
FM100900 18012KT 9999 SCT025
FM101200 17010KT 9999 BKN025

Example: see airport list